sensor_id;sensor_type;location;lat;lon;timestamp;pressure;altitude;pressure_sealevel;temperature;humidity
63019;BME280;49105;46.046;10.760;2022-10-26T00:00:46;96211.28;;;13.37;78.24
63019;BME280;49105;46.046;10.760;2022-10-26T00:03:12;96204.16;;;13.28;78.10
63019;BME280;49105;46.046;10.760;2022-10-26T00:05:37;96214.00;;;13.22;78.35
63019;BME280;49105;46.046;10.760;2022-10-26T00:08:04;96217.19;;;13.19;78.13
63019;BME280;49105;46.046;10.760;2022-10-26T00:10:29;96221.72;;;13.19;78.63
63019;BME280;49105;46.046;10.760;2022-10-26T00:12:55;96225.69;;;13.21;78.33
63019;BME280;49105;46.046;10.760;2022-10-26T00:15:21;96226.28;;;13.08;78.64
63019;BME280;49105;46.046;10.760;2022-10-26T00:17:47;96218.16;;;12.89;78.22
63019;BME280;49105;46.046;10.760;2022-10-26T00:20:13;96219.47;;;12.86;78.88
63019;BME280;49105;46.046;10.760;2022-10-26T00:22:39;96221.63;;;12.84;79.03
63019;BME280;49105;46.046;10.760;2022-10-26T00:25:05;96225.88;;;12.85;78.99
63019;BME280;49105;46.046;10.760;2022-10-26T00:27:32;96223.47;;;12.89;78.86
63019;BME280;49105;46.046;10.760;2022-10-26T00:30:01;96215.47;;;12.94;79.08
63019;BME280;49105;46.046;10.760;2022-10-26T00:32:27;96219.69;;;12.95;78.90
63019;BME280;49105;46.046;10.760;2022-10-26T00:34:52;96216.25;;;12.95;78.85
63019;BME280;49105;46.046;10.760;2022-10-26T00:37:18;96225.00;;;13.00;78.42
63019;BME280;49105;46.046;10.760;2022-10-26T00:39:43;96222.66;;;12.94;78.49
63019;BME280;49105;46.046;10.760;2022-10-26T00:42:12;96229.59;;;12.79;78.22
63019;BME280;49105;46.046;10.760;2022-10-26T00:47:14;96233.31;;;12.78;78.79
63019;BME280;49105;46.046;10.760;2022-10-26T00:49:42;96238.13;;;12.71;79.06
63019;BME280;49105;46.046;10.760;2022-10-26T00:52:11;96241.59;;;12.66;78.92
63019;BME280;49105;46.046;10.760;2022-10-26T00:54:37;96243.44;;;12.71;78.89
63019;BME280;49105;46.046;10.760;2022-10-26T00:57:03;96245.81;;;12.78;79.12
63019;BME280;49105;46.046;10.760;2022-10-26T00:59:28;96242.31;;;12.87;78.55
63019;BME280;49105;46.046;10.760;2022-10-26T01:01:54;96236.72;;;12.94;78.64
63019;BME280;49105;46.046;10.760;2022-10-26T01:04:19;96227.16;;;12.93;78.09
63019;BME280;49105;46.046;10.760;2022-10-26T01:06:45;96239.44;;;12.84;77.99
63019;BME280;49105;46.046;10.760;2022-10-26T01:09:11;96237.88;;;12.68;79.03
63019;BME280;49105;46.046;10.760;2022-10-26T01:11:37;96243.22;;;12.68;78.60
63019;BME280;49105;46.046;10.760;2022-10-26T01:14:05;96241.34;;;12.68;78.98
63019;BME280;49105;46.046;10.760;2022-10-26T01:21:57;96232.00;;;12.71;78.36
63019;BME280;49105;46.046;10.760;2022-10-26T01:27:37;96224.34;;;12.64;78.28
63019;BME280;49105;46.046;10.760;2022-10-26T01:38:27;96211.91;;;12.49;79.15
63019;BME280;49105;46.046;10.760;2022-10-26T01:41:09;96213.22;;;12.47;78.76
63019;BME280;49105;46.046;10.760;2022-10-26T01:43:41;96206.38;;;12.40;78.74
63019;BME280;49105;46.046;10.760;2022-10-26T01:46:08;96203.47;;;12.32;78.82
63019;BME280;49105;46.046;10.760;2022-10-26T01:48:36;96201.31;;;12.34;79.00
63019;BME280;49105;46.046;10.760;2022-10-26T01:51:03;96200.53;;;12.33;78.60
63019;BME280;49105;46.046;10.760;2022-10-26T01:53:30;96201.31;;;12.34;78.73
63019;BME280;49105;46.046;10.760;2022-10-26T01:55:56;96195.50;;;12.32;78.41
63019;BME280;49105;46.046;10.760;2022-10-26T02:09:26;96192.56;;;12.33;78.97
63019;BME280;49105;46.046;10.760;2022-10-26T02:11:54;96188.34;;;12.27;78.68
63019;BME280;49105;46.046;10.760;2022-10-26T02:14:37;96198.72;;;12.24;79.24
63019;BME280;49105;46.046;10.760;2022-10-26T02:17:16;96191.03;;;12.22;78.85
63019;BME280;49105;46.046;10.760;2022-10-26T02:19:50;96189.16;;;12.23;78.80
63019;BME280;49105;46.046;10.760;2022-10-26T02:22:23;96194.19;;;12.24;78.82
63019;BME280;49105;46.046;10.760;2022-10-26T02:24:51;96196.06;;;12.19;79.06
63019;BME280;49105;46.046;10.760;2022-10-26T02:27:21;96196.34;;;12.12;78.96
63019;BME280;49105;46.046;10.760;2022-10-26T02:29:49;96203.22;;;12.13;79.09
63019;BME280;49105;46.046;10.760;2022-10-26T02:32:18;96192.34;;;12.20;78.91
63019;BME280;49105;46.046;10.760;2022-10-26T02:34:46;96204.81;;;12.19;78.67
63019;BME280;49105;46.046;10.760;2022-10-26T02:37:14;96204.28;;;12.12;79.11
63019;BME280;49105;46.046;10.760;2022-10-26T02:39:44;96196.34;;;12.12;79.39
63019;BME280;49105;46.046;10.760;2022-10-26T02:42:12;96197.38;;;12.16;78.73
63019;BME280;49105;46.046;10.760;2022-10-26T02:44:58;96198.44;;;12.20;78.75
63019;BME280;49105;46.046;10.760;2022-10-26T02:47:25;96197.38;;;12.21;78.52
63019;BME280;49105;46.046;10.760;2022-10-26T02:49:52;96197.66;;;12.14;78.73
63019;BME280;49105;46.046;10.760;2022-10-26T02:55:14;96201.69;;;11.86;79.17
63019;BME280;49105;46.046;10.760;2022-10-26T02:57:44;96209.09;;;11.89;79.50
63019;BME280;49105;46.046;10.760;2022-10-26T03:00:14;96202.22;;;11.94;79.08
63019;BME280;49105;46.046;10.760;2022-10-26T03:02:45;96200.06;;;12.01;78.94
63019;BME280;49105;46.046;10.760;2022-10-26T03:05:20;96204.31;;;12.02;78.90
63019;BME280;49105;46.046;10.760;2022-10-26T03:07:47;96202.97;;;12.04;78.71
63019;BME280;49105;46.046;10.760;2022-10-26T03:10:12;96203.50;;;12.01;78.48
63019;BME280;49105;46.046;10.760;2022-10-26T03:12:38;96208.56;;;11.98;78.81
63019;BME280;49105;46.046;10.760;2022-10-26T03:15:04;96203.78;;;11.95;78.67
63019;BME280;49105;46.046;10.760;2022-10-26T03:17:30;96204.06;;;11.98;78.84
63019;BME280;49105;46.046;10.760;2022-10-26T03:19:55;96202.72;;;11.96;78.41
63019;BME280;49105;46.046;10.760;2022-10-26T03:22:21;96201.69;;;11.86;78.86
63019;BME280;49105;46.046;10.760;2022-10-26T03:24:47;96207.25;;;11.90;79.01
63019;BME280;49105;46.046;10.760;2022-10-26T03:27:13;96208.84;;;11.91;78.49
63019;BME280;49105;46.046;10.760;2022-10-26T03:29:38;96212.25;;;11.76;78.43
63019;BME280;49105;46.046;10.760;2022-10-26T03:32:04;96204.81;;;11.63;78.90
63019;BME280;49105;46.046;10.760;2022-10-26T03:34:30;96204.28;;;11.56;78.90
63019;BME280;49105;46.046;10.760;2022-10-26T03:36:55;96194.75;;;11.50;79.22
63019;BME280;49105;46.046;10.760;2022-10-26T03:39:21;96193.69;;;11.51;79.37
63019;BME280;49105;46.046;10.760;2022-10-26T03:41:46;96195.25;;;11.52;79.04
63019;BME280;49105;46.046;10.760;2022-10-26T03:44:12;96197.66;;;11.53;79.11
63019;BME280;49105;46.046;10.760;2022-10-26T03:46:38;96200.84;;;11.55;79.11
63019;BME280;49105;46.046;10.760;2022-10-26T03:49:03;96203.25;;;11.57;79.07
63019;BME280;49105;46.046;10.760;2022-10-26T03:51:29;96210.66;;;11.55;78.77
63019;BME280;49105;46.046;10.760;2022-10-26T03:53:55;96219.41;;;11.55;78.90
63019;BME280;49105;46.046;10.760;2022-10-26T03:56:20;96217.03;;;11.49;78.71
63019;BME280;49105;46.046;10.760;2022-10-26T03:58:45;96212.75;;;11.42;79.15
63019;BME280;49105;46.046;10.760;2022-10-26T04:01:11;96222.84;;;11.46;79.10
63019;BME280;49105;46.046;10.760;2022-10-26T04:03:36;96219.13;;;11.47;78.81
63019;BME280;49105;46.046;10.760;2022-10-26T04:06:02;96210.94;;;11.48;78.77
63019;BME280;49105;46.046;10.760;2022-10-26T04:08:28;96217.03;;;11.49;78.90
63019;BME280;49105;46.046;10.760;2022-10-26T04:10:53;96217.25;;;11.42;78.93
63019;BME280;49105;46.046;10.760;2022-10-26T04:13:19;96225.47;;;11.30;79.01
63019;BME280;49105;46.046;10.760;2022-10-26T04:15:44;96214.06;;;11.25;79.26
63019;BME280;49105;46.046;10.760;2022-10-26T04:18:10;96219.09;;;11.26;79.54
63019;BME280;49105;46.046;10.760;2022-10-26T04:20:39;96222.81;;;11.25;79.21
63019;BME280;49105;46.046;10.760;2022-10-26T04:23:09;96211.66;;;11.23;79.10
63019;BME280;49105;46.046;10.760;2022-10-26T04:25:35;96219.09;;;11.26;78.92
63019;BME280;49105;46.046;10.760;2022-10-26T04:28:03;96220.66;;;11.27;79.06
63019;BME280;49105;46.046;10.760;2022-10-26T04:30:29;96217.50;;;11.25;78.95
63019;BME280;49105;46.046;10.760;2022-10-26T04:32:55;96220.94;;;11.26;78.98
63019;BME280;49105;46.046;10.760;2022-10-26T04:35:20;96221.75;;;11.26;78.92
63019;BME280;49105;46.046;10.760;2022-10-26T04:37:46;96216.72;;;11.25;78.93
63019;BME280;49105;46.046;10.760;2022-10-26T04:40:12;96223.09;;;11.29;78.72
63019;BME280;49105;46.046;10.760;2022-10-26T04:42:45;96218.34;;;11.36;78.90
63019;BME280;49105;46.046;10.760;2022-10-26T04:45:13;96230.25;;;11.33;78.74
63019;BME280;49105;46.046;10.760;2022-10-26T04:47:39;96232.34;;;11.31;79.07
63019;BME280;49105;46.046;10.760;2022-10-26T04:50:05;96237.63;;;11.31;79.05
63019;BME280;49105;46.046;10.760;2022-10-26T04:52:30;96236.06;;;11.30;79.12
63019;BME280;49105;46.046;10.760;2022-10-26T04:54:56;96242.94;;;11.31;78.74
63019;BME280;49105;46.046;10.760;2022-10-26T04:57:21;96241.84;;;11.12;78.90
63019;BME280;49105;46.046;10.760;2022-10-26T04:59:46;96240.50;;;11.04;79.22
63019;BME280;49105;46.046;10.760;2022-10-26T05:02:12;96241.31;;;11.10;79.15
63019;BME280;49105;46.046;10.760;2022-10-26T05:04:37;96248.22;;;11.16;79.32
63019;BME280;49105;46.046;10.760;2022-10-26T05:07:03;96233.13;;;11.22;78.85
63019;BME280;49105;46.046;10.760;2022-10-26T05:09:28;96242.41;;;11.29;78.95
63019;BME280;49105;46.046;10.760;2022-10-26T05:11:53;96241.88;;;11.27;78.73
63019;BME280;49105;46.046;10.760;2022-10-26T05:14:19;96250.31;;;11.14;78.93
63019;BME280;49105;46.046;10.760;2022-10-26T05:16:44;96246.59;;;11.10;78.99
63019;BME280;49105;46.046;10.760;2022-10-26T05:19:10;96246.06;;;11.08;78.99
63019;BME280;49105;46.046;10.760;2022-10-26T05:21:35;96242.38;;;11.09;78.71
63019;BME280;49105;46.046;10.760;2022-10-26T05:24:01;96241.84;;;11.07;79.08
63019;BME280;49105;46.046;10.760;2022-10-26T05:26:27;96236.78;;;11.05;78.86
63019;BME280;49105;46.046;10.760;2022-10-26T05:28:52;96239.44;;;11.05;78.85
63019;BME280;49105;46.046;10.760;2022-10-26T05:31:19;96243.16;;;11.04;78.92
63019;BME280;49105;46.046;10.760;2022-10-26T05:33:49;96250.53;;;11.02;79.16
63019;BME280;49105;46.046;10.760;2022-10-26T05:36:16;96253.47;;;11.06;79.15
63019;BME280;49105;46.046;10.760;2022-10-26T05:38:42;96244.22;;;11.03;78.66
63019;BME280;49105;46.046;10.760;2022-10-26T05:41:07;96249.75;;;10.97;78.94
63019;BME280;49105;46.046;10.760;2022-10-26T05:43:33;96240.19;;;10.90;79.08
63019;BME280;49105;46.046;10.760;2022-10-26T05:45:58;96231.19;;;10.86;78.96
63019;BME280;49105;46.046;10.760;2022-10-26T05:48:24;96230.63;;;10.89;79.35
63019;BME280;49105;46.046;10.760;2022-10-26T05:50:49;96226.97;;;10.90;79.08
63019;BME280;49105;46.046;10.760;2022-10-26T05:53:15;96226.97;;;10.90;79.09
63019;BME280;49105;46.046;10.760;2022-10-26T05:55:41;96216.66;;;10.99;79.21
63019;BME280;49105;46.046;10.760;2022-10-26T05:58:11;96222.19;;;10.98;78.84
63019;BME280;49105;46.046;10.760;2022-10-26T06:05:53;96228.84;;;11.00;78.87
63019;BME280;49105;46.046;10.760;2022-10-26T06:08:20;96239.16;;;11.02;78.31
63019;BME280;49105;46.046;10.760;2022-10-26T06:10:47;96251.88;;;11.00;78.74
63019;BME280;49105;46.046;10.760;2022-10-26T06:13:13;96244.47;;;11.02;78.70
63019;BME280;49105;46.046;10.760;2022-10-26T06:24:11;96264.41;;;11.20;78.50
63019;BME280;49105;46.046;10.760;2022-10-26T06:26:51;96270.97;;;11.07;78.48
63019;BME280;49105;46.046;10.760;2022-10-26T06:29:31;96272.22;;;10.94;78.85
63019;BME280;49105;46.046;10.760;2022-10-26T06:32:00;96284.38;;;10.85;78.93
63019;BME280;49105;46.046;10.760;2022-10-26T06:34:29;96286.25;;;10.89;79.13
63019;BME280;49105;46.046;10.760;2022-10-26T06:36:57;96289.19;;;10.98;79.00
63019;BME280;49105;46.046;10.760;2022-10-26T06:39:26;96295.84;;;11.06;78.91
63019;BME280;49105;46.046;10.760;2022-10-26T06:41:54;96290.56;;;11.11;78.81
63019;BME280;49105;46.046;10.760;2022-10-26T06:44:21;96292.72;;;11.19;78.95
63019;BME280;49105;46.046;10.760;2022-10-26T06:52:21;96295.19;;;11.41;78.61
63019;BME280;49105;46.046;10.760;2022-10-26T06:54:50;96294.88;;;11.27;77.99
63019;BME280;49105;46.046;10.760;2022-10-26T06:57:18;96292.22;;;11.22;78.47
63019;BME280;49105;46.046;10.760;2022-10-26T06:59:50;96290.91;;;11.20;78.59
63019;BME280;49105;46.046;10.760;2022-10-26T07:02:16;96290.91;;;11.20;78.43
63019;BME280;49105;46.046;10.760;2022-10-26T07:04:42;96297.28;;;11.24;78.69
63019;BME280;49105;46.046;10.760;2022-10-26T07:07:11;96292.75;;;11.24;78.42
63019;BME280;49105;46.046;10.760;2022-10-26T07:09:38;96287.47;;;11.29;78.62
63019;BME280;49105;46.046;10.760;2022-10-26T07:12:04;96289.88;;;11.36;78.79
63019;BME280;49105;46.046;10.760;2022-10-26T07:14:29;96293.34;;;11.47;78.60
63019;BME280;49105;46.046;10.760;2022-10-26T07:16:54;96291.53;;;11.62;78.16
63019;BME280;49105;46.046;10.760;2022-10-26T07:19:21;96294.44;;;11.71;77.99
63019;BME280;49105;46.046;10.760;2022-10-26T07:21:47;96303.72;;;11.63;77.82
63019;BME280;49105;46.046;10.760;2022-10-26T07:24:12;96300.00;;;11.49;78.18
63019;BME280;49105;46.046;10.760;2022-10-26T07:26:37;96304.47;;;11.43;78.24
63019;BME280;49105;46.046;10.760;2022-10-26T07:29:03;96301.81;;;11.38;78.25
63019;BME280;49105;46.046;10.760;2022-10-26T07:31:28;96307.66;;;11.40;78.30
63019;BME280;49105;46.046;10.760;2022-10-26T07:33:54;96308.72;;;11.45;77.97
63019;BME280;49105;46.046;10.760;2022-10-26T07:36:19;96309.00;;;11.48;77.70
63019;BME280;49105;46.046;10.760;2022-10-26T07:38:44;96309.00;;;11.53;77.59
63019;BME280;49105;46.046;10.760;2022-10-26T07:41:10;96306.88;;;11.55;77.65
63019;BME280;49105;46.046;10.760;2022-10-26T07:43:35;96310.31;;;11.56;77.71
63019;BME280;49105;46.046;10.760;2022-10-26T07:46:00;96309.81;;;11.54;77.80
63019;BME280;49105;46.046;10.760;2022-10-26T07:48:26;96325.72;;;11.54;77.76
63019;BME280;49105;46.046;10.760;2022-10-26T07:50:51;96310.88;;;11.58;78.17
63019;BME280;49105;46.046;10.760;2022-10-26T07:53:17;96312.72;;;11.62;77.93
63019;BME280;49105;46.046;10.760;2022-10-26T07:55:42;96303.47;;;11.65;77.78
63019;BME280;49105;46.046;10.760;2022-10-26T07:58:08;96308.50;;;11.66;77.85
63019;BME280;49105;46.046;10.760;2022-10-26T08:00:33;96307.72;;;11.76;77.40
63019;BME280;49105;46.046;10.760;2022-10-26T08:02:58;96314.38;;;11.84;77.71
63019;BME280;49105;46.046;10.760;2022-10-26T08:05:24;96327.66;;;11.89;77.82
63019;BME280;49105;46.046;10.760;2022-10-26T08:07:49;96336.44;;;11.89;77.78
63019;BME280;49105;46.046;10.760;2022-10-26T08:10:15;96332.44;;;11.97;77.34
63019;BME280;49105;46.046;10.760;2022-10-26T08:12:42;96322.13;;;12.06;77.25
63019;BME280;49105;46.046;10.760;2022-10-26T08:15:08;96321.03;;;12.12;77.04
63019;BME280;49105;46.046;10.760;2022-10-26T08:17:34;96329.00;;;12.17;77.33
63019;BME280;49105;46.046;10.760;2022-10-26T08:20:00;96310.69;;;12.21;77.14
63019;BME280;49105;46.046;10.760;2022-10-26T08:22:27;96308.31;;;12.24;76.68
63019;BME280;49105;46.046;10.760;2022-10-26T08:24:53;96300.34;;;12.24;76.96
63019;BME280;49105;46.046;10.760;2022-10-26T08:27:19;96300.88;;;12.16;77.05
63019;BME280;49105;46.046;10.760;2022-10-26T08:29:44;96303.25;;;12.12;77.58
63019;BME280;49105;46.046;10.760;2022-10-26T08:32:09;96302.75;;;12.10;77.16
63019;BME280;49105;46.046;10.760;2022-10-26T08:34:35;96300.63;;;12.12;77.36
63019;BME280;49105;46.046;10.760;2022-10-26T08:37:00;96306.19;;;12.26;77.43
63019;BME280;49105;46.046;10.760;2022-10-26T08:39:25;96300.84;;;12.52;77.41
63019;BME280;49105;46.046;10.760;2022-10-26T08:42:21;96310.09;;;12.85;77.24
63019;BME280;49105;46.046;10.760;2022-10-26T08:44:57;96296.41;;;13.12;76.67
63019;BME280;49105;46.046;10.760;2022-10-26T08:47:36;96300.13;;;13.16;75.97
63019;BME280;49105;46.046;10.760;2022-10-26T08:50:25;96291.06;;;13.27;76.03
63019;BME280;49105;46.046;10.760;2022-10-26T08:52:57;96302.19;;;13.39;75.72
63019;BME280;49105;46.046;10.760;2022-10-26T08:55:32;96297.94;;;13.38;75.50
63019;BME280;49105;46.046;10.760;2022-10-26T08:58:00;96293.72;;;13.37;75.79
63019;BME280;49105;46.046;10.760;2022-10-26T09:00:30;96302.97;;;13.40;75.63
63019;BME280;49105;46.046;10.760;2022-10-26T09:02:56;96299.81;;;13.38;75.54
63019;BME280;49105;46.046;10.760;2022-10-26T09:05:29;96307.28;;;13.31;75.80
63019;BME280;49105;46.046;10.760;2022-10-26T09:08:30;96318.16;;;13.34;75.74
63019;BME280;49105;46.046;10.760;2022-10-26T09:11:20;96320.00;;;13.39;75.64
63019;BME280;49105;46.046;10.760;2022-10-26T09:23:00;96298.75;;;13.78;75.50
63019;BME280;49105;46.046;10.760;2022-10-26T09:25:37;96306.97;;;13.87;75.38
63019;BME280;49105;46.046;10.760;2022-10-26T09:28:03;96304.53;;;13.96;75.25
63019;BME280;49105;46.046;10.760;2022-10-26T09:30:30;96305.75;;;14.08;75.17
63019;BME280;49105;46.046;10.760;2022-10-26T09:32:59;96299.84;;;14.17;74.58
63019;BME280;49105;46.046;10.760;2022-10-26T09:35:37;96295.00;;;14.24;74.47
63019;BME280;49105;46.046;10.760;2022-10-26T09:38:15;96287.75;;;14.29;74.56
63019;BME280;49105;46.046;10.760;2022-10-26T09:40:57;96290.34;;;14.34;74.22
63019;BME280;49105;46.046;10.760;2022-10-26T09:46:02;96302.78;;;14.49;74.05
63019;BME280;49105;46.046;10.760;2022-10-26T09:51:02;96308.78;;;14.60;73.90
63019;BME280;49105;46.046;10.760;2022-10-26T09:53:28;96314.72;;;14.52;74.10
63019;BME280;49105;46.046;10.760;2022-10-26T09:56:08;96303.50;;;14.55;73.75
63019;BME280;49105;46.046;10.760;2022-10-26T10:01:20;96297.03;;;14.66;73.45
63019;BME280;49105;46.046;10.760;2022-10-26T10:03:46;96286.25;;;14.76;73.55
63019;BME280;49105;46.046;10.760;2022-10-26T10:06:15;96280.53;;;14.88;73.37
63019;BME280;49105;46.046;10.760;2022-10-26T10:08:41;96286.53;;;14.99;72.89
63019;BME280;49105;46.046;10.760;2022-10-26T10:11:09;96286.47;;;15.04;72.45
63019;BME280;49105;46.046;10.760;2022-10-26T10:13:38;96278.97;;;15.06;72.27
63019;BME280;49105;46.046;10.760;2022-10-26T10:16:19;96281.38;;;15.07;72.19
63019;BME280;49105;46.046;10.760;2022-10-26T10:18:55;96275.75;;;15.09;71.89
63019;BME280;49105;46.046;10.760;2022-10-26T10:21:33;96280.22;;;15.13;72.02
63019;BME280;49105;46.046;10.760;2022-10-26T10:23:59;96288.19;;;15.19;71.86
63019;BME280;49105;46.046;10.760;2022-10-26T10:26:24;96272.59;;;15.26;71.82
63019;BME280;49105;46.046;10.760;2022-10-26T10:29:00;96273.84;;;15.33;71.51
63019;BME280;49105;46.046;10.760;2022-10-26T10:31:30;96282.78;;;15.43;71.50
63019;BME280;49105;46.046;10.760;2022-10-26T10:33:56;96276.00;;;15.50;71.33
63019;BME280;49105;46.046;10.760;2022-10-26T10:36:27;96271.34;;;15.61;71.17
63019;BME280;49105;46.046;10.760;2022-10-26T10:38:54;96272.00;;;15.72;70.89
63019;BME280;49105;46.046;10.760;2022-10-26T10:41:38;96274.25;;;15.83;70.83
63019;BME280;49105;46.046;10.760;2022-10-26T10:44:25;96265.88;;;15.90;70.78
63019;BME280;49105;46.046;10.760;2022-10-26T10:47:02;96261.44;;;15.99;70.38
63019;BME280;49105;46.046;10.760;2022-10-26T10:49:28;96262.19;;;16.05;70.45
63019;BME280;49105;46.046;10.760;2022-10-26T10:51:55;96257.22;;;16.12;70.11
63019;BME280;49105;46.046;10.760;2022-10-26T10:54:33;96258.44;;;16.20;69.97
63019;BME280;49105;46.046;10.760;2022-10-26T10:59:58;96245.44;;;16.46;69.28
63019;BME280;49105;46.046;10.760;2022-10-26T11:03:02;96242.19;;;16.49;68.82
63019;BME280;49105;46.046;10.760;2022-10-26T11:08:25;96235.47;;;16.51;68.42
63019;BME280;49105;46.046;10.760;2022-10-26T11:11:31;96226.25;;;16.57;68.24
63019;BME280;49105;46.046;10.760;2022-10-26T11:14:02;96231.22;;;16.64;68.67
63019;BME280;49105;46.046;10.760;2022-10-26T11:16:36;96230.97;;;16.79;68.01
63019;BME280;49105;46.046;10.760;2022-10-26T11:19:22;96225.13;;;16.91;68.17
63019;BME280;49105;46.046;10.760;2022-10-26T11:21:53;96220.94;;;16.99;68.15
63019;BME280;49105;46.046;10.760;2022-10-26T11:24:30;96236.91;;;17.04;67.73
63019;BME280;49105;46.046;10.760;2022-10-26T11:27:16;96232.03;;;17.06;67.76
63019;BME280;49105;46.046;10.760;2022-10-26T11:29:56;96225.97;;;17.14;67.89
63019;BME280;49105;46.046;10.760;2022-10-26T11:35:32;96223.88;;;17.25;67.13
63019;BME280;49105;46.046;10.760;2022-10-26T11:43:38;96211.84;;;17.36;67.03
63019;BME280;49105;46.046;10.760;2022-10-26T11:46:10;96220.38;;;17.38;66.72
63019;BME280;49105;46.046;10.760;2022-10-26T11:51:42;96213.41;;;17.51;66.26
63019;BME280;49105;46.046;10.760;2022-10-26T11:54:14;96205.16;;;17.61;66.39
63019;BME280;49105;46.046;10.760;2022-10-26T11:56:45;96208.00;;;17.65;66.38
63019;BME280;49105;46.046;10.760;2022-10-26T11:59:19;96209.28;;;17.67;66.36
63019;BME280;49105;46.046;10.760;2022-10-26T12:02:05;96200.66;;;17.70;65.79
63019;BME280;49105;46.046;10.760;2022-10-26T12:04:36;96208.59;;;17.75;65.69
63019;BME280;49105;46.046;10.760;2022-10-26T12:07:09;96201.91;;;17.87;65.71
63019;BME280;49105;46.046;10.760;2022-10-26T12:09:38;96199.88;;;17.92;65.58
63019;BME280;49105;46.046;10.760;2022-10-26T12:14:50;96194.09;;;17.99;65.34
63019;BME280;49105;46.046;10.760;2022-10-26T12:17:34;96195.06;;;18.03;65.26
63019;BME280;49105;46.046;10.760;2022-10-26T12:23:03;96192.00;;;18.18;64.63
63019;BME280;49105;46.046;10.760;2022-10-26T12:25:29;96193.00;;;18.31;64.54
63019;BME280;49105;46.046;10.760;2022-10-26T12:27:55;96188.78;;;18.39;64.24
63019;BME280;49105;46.046;10.760;2022-10-26T12:30:25;96188.50;;;18.40;64.34
63019;BME280;49105;46.046;10.760;2022-10-26T12:32:56;96185.50;;;18.42;64.36
63019;BME280;49105;46.046;10.760;2022-10-26T12:37:56;96187.41;;;18.50;63.88
63019;BME280;49105;46.046;10.760;2022-10-26T12:45:41;96180.16;;;18.50;63.42
63019;BME280;49105;46.046;10.760;2022-10-26T12:59:45;96178.97;;;18.65;62.69
63019;BME280;49105;46.046;10.760;2022-10-26T13:07:34;96194.44;;;18.68;62.24
63019;BME280;49105;46.046;10.760;2022-10-26T13:10:04;96181.31;;;18.67;62.37
63019;BME280;49105;46.046;10.760;2022-10-26T13:13:06;96188.13;;;18.64;62.32
63019;BME280;49105;46.046;10.760;2022-10-26T13:15:40;96189.69;;;18.65;62.60
63019;BME280;49105;46.046;10.760;2022-10-26T13:18:17;96196.44;;;18.63;62.56
63019;BME280;49105;46.046;10.760;2022-10-26T13:21:06;96188.72;;;18.61;62.50
63019;BME280;49105;46.046;10.760;2022-10-26T13:23:35;96194.09;;;18.61;62.38
63019;BME280;49105;46.046;10.760;2022-10-26T13:28:31;96186.19;;;18.56;62.44
63019;BME280;49105;46.046;10.760;2022-10-26T13:30:58;96186.81;;;18.53;62.52
63019;BME280;49105;46.046;10.760;2022-10-26T13:33:29;96184.13;;;18.53;62.37
63019;BME280;49105;46.046;10.760;2022-10-26T13:35:57;96182.22;;;18.53;62.63
63019;BME280;49105;46.046;10.760;2022-10-26T13:38:28;96180.84;;;18.56;62.47
63019;BME280;49105;46.046;10.760;2022-10-26T13:41:04;96180.97;;;18.59;62.47
63019;BME280;49105;46.046;10.760;2022-10-26T13:43:31;96188.72;;;18.61;62.25
63019;BME280;49105;46.046;10.760;2022-10-26T13:46:01;96182.41;;;18.57;62.18
63019;BME280;49105;46.046;10.760;2022-10-26T13:48:35;96186.81;;;18.53;62.57
63019;BME280;49105;46.046;10.760;2022-10-26T13:51:09;96186.03;;;18.52;62.49
63019;BME280;49105;46.046;10.760;2022-10-26T13:53:38;96193.28;;;18.52;62.48
63019;BME280;49105;46.046;10.760;2022-10-26T13:58:44;96187.06;;;18.43;62.38
63019;BME280;49105;46.046;10.760;2022-10-26T14:01:15;96189.56;;;18.39;62.71
63019;BME280;49105;46.046;10.760;2022-10-26T14:03:41;96189.09;;;18.37;62.42
63019;BME280;49105;46.046;10.760;2022-10-26T14:06:15;96184.06;;;18.35;62.60
63019;BME280;49105;46.046;10.760;2022-10-26T14:08:42;96183.38;;;18.30;62.59
63019;BME280;49105;46.046;10.760;2022-10-26T14:11:13;96187.50;;;18.27;62.48
63019;BME280;49105;46.046;10.760;2022-10-26T14:13:41;96187.59;;;18.22;62.35
63019;BME280;49105;46.046;10.760;2022-10-26T14:16:09;96181.47;;;18.22;62.41
63019;BME280;49105;46.046;10.760;2022-10-26T14:18:35;96185.25;;;18.21;62.61
63019;BME280;49105;46.046;10.760;2022-10-26T14:21:07;96186.03;;;18.21;62.65
63019;BME280;49105;46.046;10.760;2022-10-26T14:26:26;96194.19;;;18.16;62.77
63019;BME280;49105;46.046;10.760;2022-10-26T14:28:57;96194.03;;;18.13;63.12
63019;BME280;49105;46.046;10.760;2022-10-26T14:31:30;96201.59;;;18.10;63.21
63019;BME280;49105;46.046;10.760;2022-10-26T14:33:57;96192.88;;;18.05;63.62
63019;BME280;49105;46.046;10.760;2022-10-26T14:37:00;96197.25;;;18.01;63.50
63019;BME280;49105;46.046;10.760;2022-10-26T14:39:41;96194.72;;;17.96;63.37
63019;BME280;49105;46.046;10.760;2022-10-26T14:42:28;96207.72;;;17.89;63.76
63019;BME280;49105;46.046;10.760;2022-10-26T14:44:55;96204.09;;;17.84;64.23
63019;BME280;49105;46.046;10.760;2022-10-26T14:47:29;96201.53;;;17.79;64.02
63019;BME280;49105;46.046;10.760;2022-10-26T14:49:56;96208.38;;;17.72;64.40
63019;BME280;49105;46.046;10.760;2022-10-26T14:52:28;96210.06;;;17.68;64.20
63019;BME280;49105;46.046;10.760;2022-10-26T14:55:11;96209.69;;;17.60;64.35
63019;BME280;49105;46.046;10.760;2022-10-26T14:57:39;96212.31;;;17.52;64.80
63019;BME280;49105;46.046;10.760;2022-10-26T15:00:20;96211.94;;;17.45;64.73
63019;BME280;49105;46.046;10.760;2022-10-26T15:02:49;96213.16;;;17.39;65.34
63019;BME280;49105;46.046;10.760;2022-10-26T15:05:26;96214.38;;;17.32;65.08
63019;BME280;49105;46.046;10.760;2022-10-26T15:07:58;96210.09;;;17.31;64.78